Time;durP1;ratioP1;P1;durP2;ratioP2;P2;SDS_P1;SDS_P2;PMS_P1;PMS_P2;Temp;Humidity;BMP_temperature;BMP_pressure;BME280_temperature;BME280_humidity;BME280_pressure;Samples;Min_cycle;Max_cycle;Signal;HPM_P1;HPM_P2
2022/07/06 00:02:04;;;;;;;8.18;2.10;;;13.80;99.90;;;;;;5032196;28;20903;-82
2022/07/06 00:04:31;;;;;;;10.13;2.42;;;13.80;99.90;;;;;;5024704;28;20395;-82
2022/07/06 00:06:58;;;;;;;15.30;2.50;;;13.90;99.90;;;;;;5026617;28;20401;-81
2022/07/06 00:09:25;;;;;;;9.98;2.22;;;13.90;99.90;;;;;;5031140;28;20390;-82
2022/07/06 00:11:52;;;;;;;12.75;2.30;;;13.90;99.90;;;;;;5032665;28;20381;-82
2022/07/06 00:14:19;;;;;;;12.82;2.30;;;13.90;99.90;;;;;;5032309;28;20404;-81
2022/07/06 00:16:47;;;;;;;12.02;2.35;;;13.90;99.90;;;;;;5032225;28;20849;-82
2022/07/06 00:19:14;;;;;;;10.00;2.20;;;13.90;99.90;;;;;;5032069;28;20408;-81
2022/07/06 00:21:41;;;;;;;9.32;2.00;;;14.00;99.90;;;;;;5032150;28;20399;-80
2022/07/06 00:24:09;;;;;;;7.80;1.90;;;14.00;99.90;;;;;;5025949;28;20395;-81
2022/07/06 00:26:36;;;;;;;9.32;1.90;;;14.00;99.90;;;;;;5031844;28;20388;-82
2022/07/06 00:29:03;;;;;;;9.80;1.90;;;14.10;99.90;;;;;;5031277;28;20381;-81
2022/07/06 00:31:30;;;;;;;8.98;1.83;;;14.10;99.90;;;;;;5031804;28;20398;-81
2022/07/06 00:33:57;;;;;;;9.55;2.08;;;14.10;99.90;;;;;;5032147;28;20374;-80
2022/07/06 00:36:24;;;;;;;11.52;2.22;;;14.10;99.90;;;;;;5027572;28;20407;-80
2022/07/06 00:38:51;;;;;;;8.45;2.00;;;14.20;99.90;;;;;;5021670;28;20451;-81
2022/07/06 00:41:18;;;;;;;11.25;2.22;;;14.20;99.90;;;;;;5031727;28;20789;-82
2022/07/06 00:43:57;;;;;;;12.45;2.00;;;14.30;99.90;;;;;;5030818;28;20401;-82
2022/07/06 00:46:31;;;;;;;10.65;2.20;;;14.30;99.90;;;;;;5031626;28;20385;-82
2022/07/06 00:48:59;;;;;;;11.93;2.10;;;14.40;99.90;;;;;;5031490;28;20857;-82
2022/07/06 00:51:32;;;;;;;9.07;2.00;;;14.50;99.90;;;;;;5031736;28;20916;-83
2022/07/06 00:54:03;;;;;;;9.32;1.85;;;14.60;99.90;;;;;;5025643;28;20392;-83
2022/07/06 00:56:31;;;;;;;10.60;2.10;;;14.50;99.90;;;;;;5031465;28;20902;-80
2022/07/06 00:59:02;;;;;;;11.00;2.00;;;14.50;99.90;;;;;;5022853;28;20410;-81
2022/07/06 01:01:29;;;;;;;10.15;2.10;;;14.50;99.90;;;;;;5028065;28;20420;-82
2022/07/06 01:03:56;;;;;;;9.00;1.95;;;14.50;99.90;;;;;;5031289;28;20385;-82
2022/07/06 01:06:23;;;;;;;10.55;2.13;;;14.50;99.90;;;;;;5031313;28;20840;-82
2022/07/06 01:08:51;;;;;;;14.07;2.22;;;14.40;99.90;;;;;;5019051;28;20461;-81
2022/07/06 01:11:20;;;;;;;10.15;2.10;;;14.40;99.90;;;;;;5022229;28;20427;-84
2022/07/06 01:13:48;;;;;;;15.03;2.37;;;14.30;99.90;;;;;;5028583;28;20389;-83
2022/07/06 01:16:15;;;;;;;11.15;2.20;;;14.30;99.90;;;;;;5016371;28;20385;-84
2022/07/06 01:18:43;;;;;;;13.57;2.72;;;14.20;99.90;;;;;;5032818;28;20391;-84
2022/07/06 01:21:12;;;;;;;15.30;2.60;;;14.30;99.90;;;;;;5027521;28;20393;-82
2022/07/06 01:23:47;;;;;;;9.95;2.50;;;14.30;99.90;;;;;;5031622;28;20861;-83
2022/07/06 01:26:18;;;;;;;13.27;2.78;;;14.40;99.90;;;;;;5030542;28;20378;-83
2022/07/06 01:28:49;;;;;;;10.07;2.20;;;14.50;99.90;;;;;;5031191;28;21083;-83
2022/07/06 01:31:20;;;;;;;13.48;2.40;;;14.60;99.90;;;;;;5030899;28;20885;-81
2022/07/06 01:33:48;;;;;;;12.88;2.58;;;14.70;99.90;;;;;;5028083;28;20468;-81
2022/07/06 01:36:15;;;;;;;10.25;2.47;;;14.70;99.90;;;;;;5017004;28;20464;-84
2022/07/06 01:38:51;;;;;;;15.98;2.70;;;14.70;99.90;;;;;;5029083;28;20393;-83
2022/07/06 01:41:19;;;;;;;14.05;2.53;;;14.70;99.90;;;;;;5049498;28;20393;-83
2022/07/06 01:43:47;;;;;;;17.90;2.97;;;14.90;99.90;;;;;;5029847;28;20952;-83
2022/07/06 01:46:14;;;;;;;15.77;2.90;;;14.90;99.90;;;;;;5029528;28;20462;-82
2022/07/06 01:48:42;;;;;;;13.60;2.60;;;15.10;99.90;;;;;;5022603;28;20400;-80
2022/07/06 01:51:09;;;;;;;13.65;2.97;;;15.10;99.90;;;;;;5020217;28;20384;-82
2022/07/06 01:53:37;;;;;;;12.43;2.55;;;15.20;99.90;;;;;;5032906;28;20387;-82
2022/07/06 01:56:04;;;;;;;12.80;2.57;;;15.40;99.90;;;;;;5019032;28;20950;-82
2022/07/06 01:58:31;;;;;;;12.50;2.55;;;15.50;99.90;;;;;;5024197;28;20387;-83
2022/07/06 02:00:58;;;;;;;11.80;2.50;;;15.70;99.90;;;;;;5030588;28;20892;-80
2022/07/06 02:03:25;;;;;;;13.40;2.20;;;15.70;99.90;;;;;;5030867;28;20416;-83
2022/07/06 02:05:53;;;;;;;14.88;2.13;;;15.80;99.90;;;;;;5030073;28;20397;-80
2022/07/06 02:08:20;;;;;;;13.35;2.38;;;15.90;99.90;;;;;;5030436;28;20366;-81
2022/07/06 02:10:47;;;;;;;13.75;2.22;;;15.90;99.90;;;;;;5020512;28;20413;-81
2022/07/06 02:13:14;;;;;;;13.85;2.45;;;16.00;99.90;;;;;;5014553;28;20389;-82
2022/07/06 02:15:41;;;;;;;11.40;2.10;;;16.00;99.90;;;;;;5014266;28;20395;-81
2022/07/06 02:18:08;;;;;;;13.80;2.53;;;15.90;99.90;;;;;;5018518;28;20455;-82
2022/07/06 02:20:35;;;;;;;13.88;2.75;;;15.80;99.90;;;;;;5017273;28;20415;-82
2022/07/06 02:23:02;;;;;;;13.70;3.00;;;15.80;99.90;;;;;;5028132;28;21092;-81
2022/07/06 02:25:30;;;;;;;16.55;2.92;;;15.80;99.90;;;;;;5029684;28;20393;-82
2022/07/06 02:27:57;;;;;;;14.85;2.75;;;15.80;99.90;;;;;;5018015;28;20386;-81
2022/07/06 02:30:24;;;;;;;15.80;2.42;;;15.90;99.90;;;;;;5019370;28;20402;-82
2022/07/06 02:32:51;;;;;;;13.57;2.30;;;15.90;99.90;;;;;;5025698;28;20471;-82
2022/07/06 02:35:18;;;;;;;12.93;3.03;;;16.00;99.90;;;;;;5020690;28;20389;-82
2022/07/06 02:37:45;;;;;;;23.20;9.30;;;16.10;99.90;;;;;;5030037;28;20378;-82
2022/07/06 02:40:13;;;;;;;13.52;2.50;;;16.20;99.90;;;;;;5025238;28;20932;-83
2022/07/06 02:42:40;;;;;;;10.65;2.20;;;16.30;99.90;;;;;;5023695;28;20446;-82
2022/07/06 02:45:08;;;;;;;11.93;2.45;;;16.30;99.90;;;;;;5026951;28;20420;-82
2022/07/06 02:47:38;;;;;;;11.47;2.27;;;16.40;99.90;;;;;;5018445;28;20796;-83
2022/07/06 02:50:06;;;;;;;11.05;2.38;;;16.50;99.90;;;;;;5029147;28;20382;-82
2022/07/06 02:52:33;;;;;;;11.60;2.40;;;16.60;99.90;;;;;;5029218;28;20515;-83
2022/07/06 02:55:00;;;;;;;10.07;2.22;;;16.70;99.90;;;;;;5029036;28;20381;-82
2022/07/06 02:57:27;;;;;;;10.07;1.90;;;16.70;99.90;;;;;;5015858;28;20392;-82
2022/07/06 02:59:54;;;;;;;12.88;1.95;;;16.70;99.90;;;;;;5027027;28;20417;-83
2022/07/06 03:02:22;;;;;;;7.77;1.90;;;16.70;99.90;;;;;;5021849;28;20454;-82
2022/07/06 03:04:50;;;;;;;9.00;1.65;;;16.70;99.90;;;;;;5019454;28;20402;-82
2022/07/06 03:07:17;;;;;;;9.60;1.80;;;16.80;99.90;;;;;;5017540;28;20385;-83
2022/07/06 03:09:44;;;;;;;10.90;1.83;;;16.80;99.90;;;;;;5033332;28;20385;-83
2022/07/06 03:12:11;;;;;;;9.50;1.88;;;16.80;99.90;;;;;;5032177;28;20385;-82
2022/07/06 03:14:38;;;;;;;10.00;1.95;;;16.70;99.90;;;;;;5023274;28;20399;-83
2022/07/06 03:17:05;;;;;;;9.10;2.00;;;16.60;99.90;;;;;;5031388;28;20496;-84
2022/07/06 03:19:32;;;;;;;10.10;2.05;;;16.50;99.90;;;;;;5032556;28;20412;-83
2022/07/06 03:22:00;;;;;;;11.85;2.28;;;16.50;99.90;;;;;;5022529;28;21104;-84
2022/07/06 03:24:27;;;;;;;11.48;2.22;;;16.40;99.90;;;;;;5030988;28;20381;-83
2022/07/06 03:26:54;;;;;;;9.60;2.07;;;16.30;99.90;;;;;;5029486;28;20468;-83
2022/07/06 03:29:22;;;;;;;10.88;2.22;;;16.30;99.90;;;;;;5024644;28;20879;-82
2022/07/06 03:31:49;;;;;;;9.88;2.25;;;16.20;99.90;;;;;;5027481;28;20401;-81
2022/07/06 03:34:16;;;;;;;10.32;2.33;;;15.90;99.90;;;;;;5026133;28;20449;-81
2022/07/06 03:36:43;;;;;;;11.93;2.90;;;15.70;99.90;;;;;;5025446;28;20791;-82
2022/07/06 03:39:10;;;;;;;11.97;2.80;;;15.60;99.90;;;;;;5033012;28;20393;-82
2022/07/06 03:41:37;;;;;;;12.25;2.40;;;15.50;99.90;;;;;;5032143;28;20396;-82
2022/07/06 03:44:05;;;;;;;9.48;2.08;;;15.60;99.90;;;;;;5032319;28;20439;-84
2022/07/06 03:46:32;;;;;;;10.90;2.13;;;15.60;99.90;;;;;;5026541;28;20864;-83
2022/07/06 03:48:59;;;;;;;10.60;2.20;;;15.50;99.90;;;;;;5032514;28;20373;-84
2022/07/06 03:51:26;;;;;;;8.45;2.08;;;15.60;99.90;;;;;;5032664;28;20389;-83
2022/07/06 03:53:53;;;;;;;12.60;2.60;;;15.60;99.90;;;;;;5032555;28;20930;-85
2022/07/06 03:56:30;;;;;;;16.02;2.45;;;15.70;99.90;;;;;;5031269;28;20873;-83
2022/07/06 03:58:58;;;;;;;14.60;2.63;;;15.80;99.90;;;;;;5032062;28;20400;-83
2022/07/06 04:01:26;;;;;;;14.63;2.70;;;15.80;99.90;;;;;;5032943;28;20963;-85
2022/07/06 04:03:53;;;;;;;14.52;2.80;;;15.80;99.90;;;;;;5032399;28;20382;-83
2022/07/06 04:06:20;;;;;;;11.90;2.50;;;15.80;99.90;;;;;;5032756;28;20380;-82
2022/07/06 04:08:47;;;;;;;14.90;3.28;;;15.80;99.90;;;;;;5032677;28;20370;-84
2022/07/06 04:11:15;;;;;;;13.52;3.05;;;15.80;99.90;;;;;;5032607;28;20461;-83
2022/07/06 04:13:42;;;;;;;13.55;3.40;;;15.80;99.90;;;;;;5031120;28;20392;-84
2022/07/06 04:16:09;;;;;;;13.93;2.75;;;15.70;99.90;;;;;;5032207;28;20733;-84
2022/07/06 04:18:36;;;;;;;14.93;3.07;;;15.70;99.90;;;;;;5031147;28;20463;-84
2022/07/06 04:21:04;;;;;;;12.95;3.08;;;15.60;99.90;;;;;;5032253;28;20381;-83
2022/07/06 04:23:31;;;;;;;16.88;3.30;;;15.60;99.90;;;;;;5032312;28;20380;-84
2022/07/06 04:25:58;;;;;;;11.77;2.65;;;15.60;99.90;;;;;;5032067;28;20472;-83
2022/07/06 04:28:25;;;;;;;14.85;2.63;;;15.60;99.90;;;;;;5031992;28;20431;-83
2022/07/06 04:30:53;;;;;;;11.75;2.22;;;15.50;99.90;;;;;;5031856;28;20413;-82
2022/07/06 04:33:20;;;;;;;10.57;2.20;;;15.60;99.90;;;;;;5032139;28;20378;-84
2022/07/06 04:35:47;;;;;;;12.43;2.38;;;15.50;99.90;;;;;;5032035;28;20460;-84
2022/07/06 04:38:15;;;;;;;12.13;2.20;;;15.60;99.90;;;;;;5031659;28;20389;-83
2022/07/06 04:40:42;;;;;;;13.30;2.37;;;15.60;99.90;;;;;;5031743;28;20402;-83
2022/07/06 04:43:13;;;;;;;12.27;2.50;;;15.50;99.90;;;;;;5017044;28;20414;-84
2022/07/06 04:45:40;;;;;;;12.07;2.13;;;15.50;99.90;;;;;;5031817;28;20925;-84
2022/07/06 04:48:10;;;;;;;11.38;2.22;;;15.50;99.90;;;;;;5031698;28;20921;-84
2022/07/06 04:50:38;;;;;;;10.27;2.17;;;15.50;99.90;;;;;;5031604;28;20393;-83
2022/07/06 04:53:05;;;;;;;12.35;2.22;;;15.40;99.90;;;;;;5031807;28;20393;-81
2022/07/06 04:55:32;;;;;;;10.38;1.88;;;15.40;99.90;;;;;;5033363;28;20386;-83
2022/07/06 04:57:59;;;;;;;9.63;1.98;;;15.30;99.90;;;;;;5036182;28;20476;-84
2022/07/06 05:00:26;;;;;;;10.05;1.85;;;15.20;99.90;;;;;;5019040;28;20495;-84
2022/07/06 05:02:53;;;;;;;8.33;2.03;;;15.00;99.90;;;;;;5032316;28;20393;-83
2022/07/06 05:05:20;;;;;;;10.13;2.00;;;15.20;99.90;;;;;;5036109;28;20369;-83
2022/07/06 05:07:48;;;;;;;9.57;2.00;;;15.10;99.90;;;;;;5032027;28;20375;-83
2022/07/06 05:10:15;;;;;;;10.15;2.00;;;15.10;99.90;;;;;;5047459;28;20402;-83
2022/07/06 05:12:42;;;;;;;11.65;1.98;;;15.20;99.90;;;;;;5033339;28;20390;-84
2022/07/06 05:15:10;;;;;;;10.77;2.13;;;15.20;99.90;;;;;;5031620;28;20373;-84
2022/07/06 05:17:37;;;;;;;10.40;2.03;;;15.10;99.90;;;;;;5021761;28;20385;-87
2022/07/06 05:20:05;;;;;;;10.45;1.90;;;15.20;99.90;;;;;;5031209;28;20405;-86
2022/07/06 05:22:32;;;;;;;11.80;2.10;;;15.20;99.90;;;;;;5031479;28;20771;-84
2022/07/06 05:25:00;;;;;;;9.80;2.05;;;15.20;99.90;;;;;;5031692;28;20475;-87
2022/07/06 05:27:28;;;;;;;10.23;1.98;;;15.20;99.90;;;;;;5029859;28;20746;-83
2022/07/06 05:29:55;;;;;;;9.65;1.90;;;15.10;99.90;;;;;;5018647;28;20870;-81
2022/07/06 05:32:22;;;;;;;10.80;2.03;;;15.20;99.90;;;;;;5030668;28;20888;-85
2022/07/06 05:34:51;;;;;;;10.57;2.03;;;15.20;99.90;;;;;;5023461;28;20394;-85
2022/07/06 05:37:18;;;;;;;9.95;2.20;;;15.20;99.90;;;;;;5027371;28;20389;-82
2022/07/06 05:39:47;;;;;;;6.65;1.83;;;15.20;99.90;;;;;;5023215;28;20412;-84
2022/07/06 05:42:14;;;;;;;9.38;1.98;;;15.10;99.90;;;;;;5015975;28;20390;-83
2022/07/06 05:44:41;;;;;;;10.45;2.15;;;15.10;99.90;;;;;;5010930;28;20386;-83
2022/07/06 05:52:42;;;;;;;9.40;2.37;;;15.00;99.90;;;;;;5012803;28;20365;-84
2022/07/06 05:55:11;;;;;;;11.82;2.30;;;14.80;99.90;;;;;;5016194;28;20783;-82
2022/07/06 05:57:42;;;;;;;10.18;2.15;;;14.80;99.90;;;;;;5010389;28;20449;-84
2022/07/06 06:00:11;;;;;;;8.90;2.47;;;14.80;99.90;;;;;;5023144;28;20405;-84
2022/07/06 06:02:43;;;;;;;9.52;2.63;;;14.80;99.90;;;;;;5024480;28;20371;-83
2022/07/06 06:05:11;;;;;;;8.40;2.40;;;14.70;99.90;;;;;;5010640;28;20389;-82
2022/07/06 06:07:39;;;;;;;6.68;1.90;;;14.70;99.90;;;;;;5011897;28;20389;-83
2022/07/06 06:10:12;;;;;;;10.40;2.40;;;14.70;99.90;;;;;;5029754;28;20386;-84
2022/07/06 06:12:40;;;;;;;8.68;2.30;;;14.60;99.90;;;;;;5011999;28;20371;-84
2022/07/06 06:15:08;;;;;;;8.35;2.30;;;14.60;99.90;;;;;;5010318;28;20778;-83
2022/07/06 06:17:37;;;;;;;8.10;2.00;;;14.60;99.90;;;;;;5010093;28;20731;-80
2022/07/06 06:20:08;;;;;;;7.38;2.10;;;14.60;99.90;;;;;;5011893;28;20978;-83
2022/07/06 06:22:50;;;;;;;8.18;2.00;;;14.60;99.90;;;;;;5014093;28;20383;-82
2022/07/06 06:25:42;;;;;;;7.82;1.75;;;14.60;99.90;;;;;;5010651;28;20754;-82
2022/07/06 06:28:11;;;;;;;6.47;1.70;;;14.60;99.90;;;;;;5010216;28;20379;-82
2022/07/06 06:30:39;;;;;;;7.25;1.65;;;14.60;99.90;;;;;;5010348;28;20478;-82
2022/07/06 06:33:14;;;;;;;7.07;1.77;;;14.50;99.90;;;;;;5023256;28;20395;-82
2022/07/06 06:35:49;;;;;;;6.75;1.80;;;14.50;99.90;;;;;;5016571;28;20394;-88
2022/07/06 06:38:18;;;;;;;8.65;1.70;;;14.50;99.90;;;;;;5012082;28;20803;-84
2022/07/06 06:40:45;;;;;;;6.82;1.60;;;14.50;99.90;;;;;;5020263;28;20749;-82
2022/07/06 06:43:13;;;;;;;7.07;1.60;;;14.50;99.90;;;;;;5027893;28;20460;-82
2022/07/06 06:45:40;;;;;;;7.47;1.70;;;14.40;99.90;;;;;;5031800;28;20405;-82
2022/07/06 06:48:07;;;;;;;7.55;1.80;;;14.40;99.90;;;;;;5030128;28;20386;-84
2022/07/06 06:50:34;;;;;;;6.45;1.70;;;14.40;99.90;;;;;;5028602;28;20373;-84
2022/07/06 06:53:03;;;;;;;8.45;1.80;;;14.30;99.90;;;;;;5033986;28;20373;-83
2022/07/06 06:55:30;;;;;;;10.50;2.00;;;14.30;99.90;;;;;;5031595;28;20789;-85
2022/07/06 06:57:57;;;;;;;5.40;1.80;;;14.20;99.90;;;;;;5034230;28;20381;-83
2022/07/06 07:00:24;;;;;;;7.55;2.03;;;14.20;99.90;;;;;;5033925;28;20437;-81
2022/07/06 07:02:51;;;;;;;8.18;2.00;;;14.20;99.90;;;;;;5033820;28;20437;-83
2022/07/06 07:05:18;;;;;;;7.22;2.10;;;14.20;99.90;;;;;;5030677;28;20397;-80
2022/07/06 07:07:46;;;;;;;11.63;2.13;;;14.20;99.90;;;;;;5027786;28;20387;-81
2022/07/06 07:10:13;;;;;;;10.05;2.13;;;14.20;99.90;;;;;;5033025;28;20432;-83
2022/07/06 07:12:45;;;;;;;7.22;1.88;;;14.20;99.90;;;;;;5038583;28;20377;-83
2022/07/06 07:15:12;;;;;;;6.57;2.00;;;14.20;99.90;;;;;;5034085;28;20428;-78
2022/07/06 07:17:39;;;;;;;7.55;1.73;;;14.10;99.90;;;;;;5032937;28;20404;-82
2022/07/06 07:20:07;;;;;;;6.85;1.70;;;14.10;99.90;;;;;;5033072;28;20401;-82
2022/07/06 07:22:35;;;;;;;7.72;1.50;;;14.10;99.90;;;;;;5031152;28;20875;-79
2022/07/06 07:25:02;;;;;;;6.75;1.70;;;14.10;99.90;;;;;;5033075;28;20753;-87
2022/07/06 07:27:29;;;;;;;6.25;1.50;;;14.10;99.90;;;;;;5031038;28;20413;-83
2022/07/06 07:29:56;;;;;;;6.82;1.70;;;14.10;99.90;;;;;;5033107;28;20386;-82
2022/07/06 07:32:23;;;;;;;4.50;1.30;;;14.10;99.90;;;;;;5031798;28;20447;-83
2022/07/06 07:34:50;;;;;;;5.53;1.48;;;14.10;99.90;;;;;;5032384;28;20979;-82
2022/07/06 07:37:17;;;;;;;5.70;1.52;;;14.20;99.90;;;;;;5031814;28;20454;-81
2022/07/06 07:39:44;;;;;;;8.75;2.30;;;14.20;99.90;;;;;;5031610;28;20409;-81
2022/07/06 07:42:12;;;;;;;6.25;1.80;;;14.10;99.90;;;;;;5031819;28;20383;-82
2022/07/06 07:44:40;;;;;;;6.10;1.90;;;14.10;99.90;;;;;;5032872;28;20373;-82
2022/07/06 07:47:07;;;;;;;5.57;1.60;;;14.10;99.90;;;;;;5032563;28;20389;-83
2022/07/06 07:49:35;;;;;;;5.95;1.70;;;14.20;99.90;;;;;;5032172;28;20431;-84
2022/07/06 07:52:02;;;;;;;7.13;1.97;;;14.10;99.90;;;;;;5019413;28;20383;-82
2022/07/06 07:54:29;;;;;;;7.00;1.80;;;14.10;99.90;;;;;;5032883;28;20390;-82
2022/07/06 07:56:56;;;;;;;8.38;2.17;;;14.10;99.90;;;;;;5032407;28;20388;-83
2022/07/06 07:59:23;;;;;;;7.20;1.93;;;14.10;99.90;;;;;;5032092;28;20765;-82
2022/07/06 08:01:50;;;;;;;6.68;2.13;;;14.10;99.90;;;;;;5033414;28;20382;-80
2022/07/06 08:04:18;;;;;;;6.15;1.70;;;14.10;99.90;;;;;;5036469;28;20420;-83
2022/07/06 08:06:45;;;;;;;9.55;1.90;;;14.10;99.90;;;;;;5027666;28;20395;-87
2022/07/06 08:09:12;;;;;;;7.07;1.70;;;14.10;99.90;;;;;;5023431;28;20377;-82
2022/07/06 08:11:39;;;;;;;5.68;1.70;;;14.00;99.90;;;;;;5032411;28;20400;-82
2022/07/06 08:14:07;;;;;;;6.28;1.80;;;14.10;99.90;;;;;;5032740;28;20386;-83
2022/07/06 08:16:34;;;;;;;8.68;1.77;;;14.20;99.90;;;;;;5032939;28;20389;-83
2022/07/06 08:19:01;;;;;;;5.65;1.60;;;14.20;99.90;;;;;;5032008;28;20766;-83
2022/07/06 08:21:31;;;;;;;7.03;1.70;;;14.20;99.90;;;;;;5032427;28;20872;-80
2022/07/06 08:24:00;;;;;;;6.20;1.52;;;14.20;99.90;;;;;;5033124;28;20846;-84
2022/07/06 08:26:27;;;;;;;5.85;1.50;;;14.20;99.90;;;;;;5032418;28;20385;-82
2022/07/06 08:28:55;;;;;;;6.85;1.45;;;14.20;99.90;;;;;;5032495;28;20418;-84
2022/07/06 08:31:22;;;;;;;6.70;1.55;;;14.20;99.90;;;;;;5027385;28;20950;-87
2022/07/06 08:33:52;;;;;;;6.57;1.50;;;14.10;99.90;;;;;;5022495;28;20388;-86
2022/07/06 08:36:22;;;;;;;5.25;1.60;;;14.10;99.90;;;;;;5031693;28;20451;-81
2022/07/06 08:38:49;;;;;;;7.18;1.48;;;14.10;99.90;;;;;;5030487;28;20393;-83
2022/07/06 08:41:18;;;;;;;6.03;1.40;;;14.00;99.90;;;;;;5037007;28;20397;-79
2022/07/06 08:43:45;;;;;;;7.43;1.70;;;14.10;99.90;;;;;;5030262;28;20392;-80
2022/07/06 08:46:14;;;;;;;6.57;1.70;;;14.10;99.90;;;;;;5033079;28;20393;-87
2022/07/06 08:48:42;;;;;;;8.15;1.60;;;14.10;99.90;;;;;;5019397;28;20798;-84
2022/07/06 08:51:09;;;;;;;5.80;1.48;;;14.10;99.90;;;;;;5032234;28;20385;-82
2022/07/06 08:53:37;;;;;;;6.45;1.50;;;14.10;99.90;;;;;;5030950;28;20384;-82
2022/07/06 08:56:04;;;;;;;7.05;1.67;;;14.10;99.90;;;;;;5032125;28;20378;-82
2022/07/06 08:58:33;;;;;;;6.18;1.50;;;14.10;99.90;;;;;;5030685;28;20386;-83
2022/07/06 09:01:00;;;;;;;6.50;1.60;;;14.10;99.90;;;;;;5032186;28;20804;-84
2022/07/06 09:03:28;;;;;;;5.95;1.38;;;14.10;99.90;;;;;;5033600;28;20374;-83
2022/07/06 09:06:01;;;;;;;7.55;1.60;;;14.10;99.90;;;;;;5031186;28;20377;-83
2022/07/06 09:08:31;;;;;;;5.97;1.63;;;14.10;99.90;;;;;;5031585;28;20381;-82
2022/07/06 09:10:58;;;;;;;7.25;1.50;;;14.00;99.90;;;;;;5031610;28;20461;-83
2022/07/06 09:13:25;;;;;;;5.95;1.60;;;14.00;99.90;;;;;;5019861;28;20469;-83
2022/07/06 09:15:52;;;;;;;8.40;1.80;;;13.90;99.90;;;;;;5027825;28;20828;-85
2022/07/06 09:18:22;;;;;;;7.55;1.70;;;13.80;99.90;;;;;;5029230;28;20491;-81
2022/07/06 09:20:50;;;;;;;7.57;1.70;;;13.70;99.90;;;;;;5030229;28;20936;-80
2022/07/06 09:23:17;;;;;;;7.60;1.90;;;13.70;99.90;;;;;;5031205;28;20377;-79
2022/07/06 09:25:49;;;;;;;10.13;1.75;;;13.70;99.90;;;;;;5030789;28;20461;-81
2022/07/06 09:28:17;;;;;;;7.75;1.60;;;13.60;99.90;;;;;;5014181;28;20390;-81
2022/07/06 09:30:44;;;;;;;8.98;1.63;;;13.50;99.90;;;;;;5028745;28;20404;-80
2022/07/06 09:33:12;;;;;;;7.55;1.75;;;13.50;99.90;;;;;;5017265;28;20390;-82
2022/07/06 09:35:39;;;;;;;6.78;1.55;;;13.50;99.90;;;;;;5029567;28;20388;-79
2022/07/06 09:38:06;;;;;;;8.45;1.70;;;13.50;99.90;;;;;;5030332;28;20468;-79
2022/07/06 09:40:36;;;;;;;6.00;1.70;;;13.40;99.90;;;;;;5030585;28;20405;-85
2022/07/06 09:43:10;;;;;;;6.90;1.60;;;12.70;99.90;;;;;;5028966;28;20470;-82
2022/07/06 09:45:39;;;;;;;8.65;1.73;;;13.40;99.90;;;;;;5017604;28;20401;-81
2022/07/06 09:48:24;;;;;;;7.65;1.60;;;13.40;99.90;;;;;;5030036;28;20791;-81
2022/07/06 09:50:53;;;;;;;6.70;1.60;;;13.40;99.90;;;;;;5030557;28;20389;-82
2022/07/06 09:53:25;;;;;;;8.27;1.50;;;13.30;99.90;;;;;;5028878;28;20400;-82
2022/07/06 09:55:54;;;;;;;5.53;1.43;;;13.40;99.90;;;;;;5017190;28;20498;-83
2022/07/06 09:58:22;;;;;;;5.47;1.60;;;13.30;99.90;;;;;;5030052;28;20386;-85
2022/07/06 10:00:51;;;;;;;7.30;1.70;;;13.30;99.90;;;;;;5025155;28;20784;-85
2022/07/06 10:03:18;;;;;;;8.18;1.75;;;13.30;99.90;;;;;;5029474;28;20861;-83
2022/07/06 10:05:48;;;;;;;9.48;2.00;;;13.30;99.90;;;;;;5028229;28;20430;-82
2022/07/06 10:08:17;;;;;;;7.53;1.70;;;13.30;99.90;;;;;;5030327;28;20381;-83
2022/07/06 10:10:45;;;;;;;6.57;1.80;;;13.30;99.90;;;;;;5029687;28;20478;-82
2022/07/06 10:13:12;;;;;;;9.10;1.80;;;13.30;99.90;;;;;;5030263;28;20421;-83
2022/07/06 10:15:40;;;;;;;6.32;1.70;;;13.30;99.90;;;;;;5029226;28;20397;-84
2022/07/06 10:18:10;;;;;;;10.25;2.03;;;13.40;99.90;;;;;;5028990;28;20377;-83
2022/07/06 10:20:39;;;;;;;9.00;1.80;;;13.40;99.90;;;;;;5030387;28;20473;-83
2022/07/06 10:23:09;;;;;;;7.07;1.70;;;13.30;99.90;;;;;;5030529;28;20479;-84
2022/07/06 10:25:43;;;;;;;6.88;1.60;;;13.30;99.90;;;;;;5030379;28;20471;-83
2022/07/06 10:28:14;;;;;;;7.47;1.90;;;13.30;99.90;;;;;;5030421;28;20749;-82
2022/07/06 10:30:44;;;;;;;7.32;1.88;;;13.40;99.90;;;;;;5029481;28;20436;-83
2022/07/06 10:33:14;;;;;;;8.00;1.67;;;13.40;99.90;;;;;;5029800;28;20862;-82
2022/07/06 10:35:41;;;;;;;6.40;1.60;;;13.50;99.90;;;;;;5026006;28;20533;-83
2022/07/06 10:38:11;;;;;;;8.50;1.65;;;13.40;99.90;;;;;;5025157;28;20468;-83
2022/07/06 10:43:34;;;;;;;7.65;1.60;;;13.40;99.90;;;;;;5029707;28;20380;-83
2022/07/06 10:46:13;;;;;;;7.67;1.60;;;13.50;99.90;;;;;;5016509;28;20408;-85
2022/07/06 10:48:44;;;;;;;4.28;1.33;;;13.40;99.90;;;;;;5028664;28;20386;-83
2022/07/06 10:51:16;;;;;;;7.82;1.52;;;13.40;99.90;;;;;;5028726;28;20388;-85
2022/07/06 10:53:44;;;;;;;5.27;1.40;;;13.40;99.90;;;;;;5029925;28;20394;-83
2022/07/06 10:56:12;;;;;;;6.97;1.40;;;13.50;99.90;;;;;;5030348;28;20397;-81
2022/07/06 10:58:43;;;;;;;15.23;2.00;;;13.50;99.90;;;;;;5021508;28;20390;-83
2022/07/06 11:01:11;;;;;;;26.48;2.42;;;13.50;99.90;;;;;;5023084;28;20393;-86
2022/07/06 11:03:46;;;;;;;13.65;1.80;;;13.40;99.90;;;;;;5032397;28;20385;-86
2022/07/06 11:06:24;;;;;;;10.68;1.70;;;13.50;99.90;;;;;;5032643;28;20404;-84
2022/07/06 11:08:57;;;;;;;7.43;1.50;;;13.50;99.90;;;;;;5030616;28;20737;-83
2022/07/06 11:11:41;;;;;;;7.05;1.60;;;13.50;99.90;;;;;;5030036;28;20408;-84
2022/07/06 11:14:21;;;;;;;8.50;1.80;;;13.50;99.90;;;;;;5029587;28;20411;-84
2022/07/06 11:16:48;;;;;;;6.22;1.85;;;13.50;99.90;;;;;;5029176;28;20401;-83
2022/07/06 11:19:20;;;;;;;8.10;1.75;;;13.50;99.90;;;;;;5028948;28;20758;-83
2022/07/06 11:21:58;;;;;;;7.80;1.70;;;13.50;99.90;;;;;;5029703;28;20390;-83
2022/07/06 11:24:29;;;;;;;7.70;2.10;;;13.50;99.90;;;;;;5029442;28;20385;-83
2022/07/06 11:26:58;;;;;;;8.57;3.20;;;13.50;99.90;;;;;;5029869;28;20873;-83
2022/07/06 11:29:26;;;;;;;7.68;2.35;;;13.50;99.90;;;;;;5032310;28;20873;-84
2022/07/06 11:32:00;;;;;;;10.38;2.72;;;13.50;99.90;;;;;;5031637;28;20404;-83
2022/07/06 11:34:30;;;;;;;10.43;2.15;;;13.60;99.90;;;;;;5031552;28;20393;-83
2022/07/06 11:36:58;;;;;;;8.55;2.10;;;13.60;99.90;;;;;;5031095;28;20396;-84
2022/07/06 11:39:36;;;;;;;10.20;2.40;;;13.60;99.90;;;;;;5031625;28;20443;-83
2022/07/06 11:42:04;;;;;;;8.25;2.30;;;13.60;99.90;;;;;;5031604;28;20388;-84
2022/07/06 11:44:32;;;;;;;9.98;2.20;;;13.70;99.90;;;;;;5031311;28;20936;-83
2022/07/06 11:47:02;;;;;;;9.37;2.43;;;13.70;99.90;;;;;;5023174;28;20459;-83
2022/07/06 11:49:30;;;;;;;8.90;2.50;;;13.70;99.90;;;;;;5031666;28;20389;-85
2022/07/06 11:51:57;;;;;;;8.95;2.85;;;13.60;99.90;;;;;;5031555;28;21027;-85
2022/07/06 11:54:25;;;;;;;7.97;2.85;;;13.70;99.90;;;;;;5031643;28;20396;-84
2022/07/06 11:56:58;;;;;;;9.07;2.83;;;13.70;99.90;;;;;;5031702;28;20921;-83
2022/07/06 11:59:30;;;;;;;4.80;1.40;;;13.70;99.90;;;;;;5026159;28;20391;-83
2022/07/06 12:02:08;;;;;;;6.07;1.60;;;13.70;99.90;;;;;;5028501;28;20394;-85
2022/07/06 12:04:37;;;;;;;7.50;1.80;;;13.70;99.90;;;;;;5031146;28;20903;-83
2022/07/06 12:07:11;;;;;;;5.97;1.75;;;13.70;99.90;;;;;;5018970;28;20525;-83
2022/07/06 12:09:40;;;;;;;8.68;1.80;;;13.70;99.90;;;;;;5025247;28;20390;-83
2022/07/06 12:12:09;;;;;;;5.55;1.45;;;13.70;99.90;;;;;;5016486;28;20736;-83
2022/07/06 12:14:38;;;;;;;4.68;1.40;;;13.60;99.90;;;;;;5018869;28;20398;-82
2022/07/06 12:17:07;;;;;;;7.88;1.83;;;13.50;99.90;;;;;;5019888;28;20467;-82
2022/07/06 12:19:36;;;;;;;7.55;1.77;;;13.40;99.90;;;;;;5026126;28;20909;-82
2022/07/06 12:22:04;;;;;;;6.80;1.73;;;13.30;99.90;;;;;;5021678;28;20403;-83
2022/07/06 12:24:33;;;;;;;7.45;1.75;;;13.30;99.90;;;;;;5028318;28;20873;-82
2022/07/06 12:27:17;;;;;;;8.57;2.03;;;13.20;99.90;;;;;;5023100;28;20901;-83
2022/07/06 12:29:46;;;;;;;6.70;1.77;;;13.20;99.90;;;;;;5031878;28;20414;-84
2022/07/06 12:32:22;;;;;;;7.00;1.70;;;13.20;99.90;;;;;;4129579;28;25692075;-82
2022/07/06 12:35:07;;;;;;;5.63;1.80;;;13.20;99.90;;;;;;5019759;28;20404;-84
2022/07/06 12:37:35;;;;;;;5.43;1.55;;;13.20;99.90;;;;;;5018601;28;20387;-83
2022/07/06 12:40:12;;;;;;;4.82;1.42;;;13.20;99.90;;;;;;5025112;28;20735;-81
2022/07/06 12:42:47;;;;;;;5.90;1.33;;;13.20;99.90;;;;;;5016590;28;20466;-83
2022/07/06 12:45:15;;;;;;;4.93;1.50;;;13.30;99.90;;;;;;5023657;28;20451;-83
2022/07/06 12:47:57;;;;;;;4.53;1.40;;;13.30;99.90;;;;;;5024079;28;20383;-83
2022/07/06 12:50:34;;;;;;;4.43;1.60;;;13.30;99.90;;;;;;5028312;28;20844;-86
2022/07/06 12:53:03;;;;;;;3.92;1.30;;;13.30;99.90;;;;;;5015735;28;20390;-82
2022/07/06 12:55:31;;;;;;;5.65;1.40;;;13.30;99.90;;;;;;5028640;28;20466;-83
2022/07/06 12:57:59;;;;;;;4.03;1.35;;;13.30;99.90;;;;;;5029413;28;20385;-83
2022/07/06 13:00:26;;;;;;;5.38;1.45;;;13.30;99.90;;;;;;5028395;28;20510;-84